Terminal Aerodrome Forecast
Issued by NWS

Home | Current Version | Previous Version | Graphics & Text | Print | Product List | Glossary On
Versions: 1 2 3 4 5 6 7 8 9 10 11 12 13 14 15 16 17 18
000
FTUS43 KABR 030800 AAA
TAFMBG
TAF AMD
KMBG 030818Z 0308/0406 35024G33KT P6SM -SN BKN015 OVC100
      TEMPO 0309/0313 3SM -SN
     FM031400 33026G35KT P6SM OVC025
     FM031800 33015KT P6SM BKN040=

USA.gov is the U.S. government's official web portal to all federal, state and local government web resources and services.